sensor_id;sensor_type;location;lat;lon;timestamp;temperature;humidity
871;DHT22;422;51.280;7.236;2023-06-26T00:02:19;21.40;1.00
871;DHT22;422;51.280;7.236;2023-06-26T00:04:46;21.40;1.00
871;DHT22;422;51.280;7.236;2023-06-26T00:07:13;21.40;1.00
871;DHT22;422;51.280;7.236;2023-06-26T00:09:42;21.40;1.00
871;DHT22;422;51.280;7.236;2023-06-26T00:12:10;21.40;1.00
871;DHT22;422;51.280;7.236;2023-06-26T00:14:37;21.30;1.00
871;DHT22;422;51.280;7.236;2023-06-26T00:17:04;21.40;1.00
871;DHT22;422;51.280;7.236;2023-06-26T00:19:31;21.40;1.00
871;DHT22;422;51.280;7.236;2023-06-26T00:21:59;21.50;1.00
871;DHT22;422;51.280;7.236;2023-06-26T00:24:26;21.50;1.00
871;DHT22;422;51.280;7.236;2023-06-26T00:26:54;21.40;1.00
871;DHT22;422;51.280;7.236;2023-06-26T00:29:22;21.50;1.00
871;DHT22;422;51.280;7.236;2023-06-26T00:31:49;21.60;1.00
871;DHT22;422;51.280;7.236;2023-06-26T00:34:16;21.70;1.00
871;DHT22;422;51.280;7.236;2023-06-26T00:36:43;21.70;1.00
871;DHT22;422;51.280;7.236;2023-06-26T00:39:11;21.60;1.00
871;DHT22;422;51.280;7.236;2023-06-26T00:41:38;21.60;1.00
871;DHT22;422;51.280;7.236;2023-06-26T00:44:07;21.40;1.00
871;DHT22;422;51.280;7.236;2023-06-26T00:46:35;21.30;1.00
871;DHT22;422;51.280;7.236;2023-06-26T00:49:03;21.30;1.00
871;DHT22;422;51.280;7.236;2023-06-26T00:51:31;21.20;1.00
871;DHT22;422;51.280;7.236;2023-06-26T00:53:58;21.10;1.00
871;DHT22;422;51.280;7.236;2023-06-26T00:56:26;21.10;1.00
871;DHT22;422;51.280;7.236;2023-06-26T00:58:54;21.10;19.40
871;DHT22;422;51.280;7.236;2023-06-26T01:01:23;21.00;99.90
871;DHT22;422;51.280;7.236;2023-06-26T01:03:52;20.90;1.00
871;DHT22;422;51.280;7.236;2023-06-26T01:06:21;20.90;99.90
871;DHT22;422;51.280;7.236;2023-06-26T01:08:49;20.90;99.90
871;DHT22;422;51.280;7.236;2023-06-26T01:11:17;20.90;99.90
871;DHT22;422;51.280;7.236;2023-06-26T01:13:45;20.80;1.00
871;DHT22;422;51.280;7.236;2023-06-26T01:16:13;20.80;1.00
871;DHT22;422;51.280;7.236;2023-06-26T01:18:43;20.80;1.00
871;DHT22;422;51.280;7.236;2023-06-26T01:21:13;20.60;1.00
871;DHT22;422;51.280;7.236;2023-06-26T01:23:48;20.60;1.00
871;DHT22;422;51.280;7.236;2023-06-26T01:26:19;20.50;99.90
871;DHT22;422;51.280;7.236;2023-06-26T01:28:48;20.50;1.00
871;DHT22;422;51.280;7.236;2023-06-26T01:31:16;20.40;1.00
871;DHT22;422;51.280;7.236;2023-06-26T01:33:44;20.30;1.00
871;DHT22;422;51.280;7.236;2023-06-26T01:36:12;20.40;1.00
871;DHT22;422;51.280;7.236;2023-06-26T01:38:39;20.30;1.00
871;DHT22;422;51.280;7.236;2023-06-26T01:41:07;20.30;1.00
871;DHT22;422;51.280;7.236;2023-06-26T01:43:41;20.30;1.00
871;DHT22;422;51.280;7.236;2023-06-26T01:46:14;20.20;1.00
871;DHT22;422;51.280;7.236;2023-06-26T01:48:49;20.20;1.00
871;DHT22;422;51.280;7.236;2023-06-26T01:51:18;20.20;1.00
871;DHT22;422;51.280;7.236;2023-06-26T01:53:51;20.20;1.00
871;DHT22;422;51.280;7.236;2023-06-26T01:56:22;20.30;1.00
871;DHT22;422;51.280;7.236;2023-06-26T01:58:52;20.20;1.00
871;DHT22;422;51.280;7.236;2023-06-26T02:01:20;20.20;1.00
871;DHT22;422;51.280;7.236;2023-06-26T02:03:48;20.10;1.00
871;DHT22;422;51.280;7.236;2023-06-26T02:06:15;20.10;1.00
871;DHT22;422;51.280;7.236;2023-06-26T02:08:42;19.90;1.00
871;DHT22;422;51.280;7.236;2023-06-26T02:11:10;19.90;1.00
871;DHT22;422;51.280;7.236;2023-06-26T02:13:37;19.90;1.00
871;DHT22;422;51.280;7.236;2023-06-26T02:16:05;19.90;1.00
871;DHT22;422;51.280;7.236;2023-06-26T02:18:33;19.90;1.00
871;DHT22;422;51.280;7.236;2023-06-26T02:21:02;19.90;1.00
871;DHT22;422;51.280;7.236;2023-06-26T02:23:30;19.80;1.00
871;DHT22;422;51.280;7.236;2023-06-26T02:25:57;19.80;1.00
871;DHT22;422;51.280;7.236;2023-06-26T02:28:24;19.90;1.00
871;DHT22;422;51.280;7.236;2023-06-26T02:30:51;19.80;1.00
871;DHT22;422;51.280;7.236;2023-06-26T02:33:20;19.90;1.00
871;DHT22;422;51.280;7.236;2023-06-26T02:35:47;19.80;1.00
871;DHT22;422;51.280;7.236;2023-06-26T02:38:16;19.80;1.00
871;DHT22;422;51.280;7.236;2023-06-26T02:40:43;19.80;1.00
871;DHT22;422;51.280;7.236;2023-06-26T02:43:10;19.90;1.00
871;DHT22;422;51.280;7.236;2023-06-26T02:45:37;19.80;1.00
871;DHT22;422;51.280;7.236;2023-06-26T02:48:05;19.70;1.00
871;DHT22;422;51.280;7.236;2023-06-26T02:50:33;19.70;1.00
871;DHT22;422;51.280;7.236;2023-06-26T02:53:00;19.60;1.00
871;DHT22;422;51.280;7.236;2023-06-26T02:55:28;19.60;1.00
871;DHT22;422;51.280;7.236;2023-06-26T02:57:55;19.70;1.00
871;DHT22;422;51.280;7.236;2023-06-26T03:00:22;19.70;1.00
871;DHT22;422;51.280;7.236;2023-06-26T03:02:50;19.60;1.00
871;DHT22;422;51.280;7.236;2023-06-26T03:05:17;19.60;1.00
871;DHT22;422;51.280;7.236;2023-06-26T03:07:46;19.60;1.00
871;DHT22;422;51.280;7.236;2023-06-26T03:10:13;19.50;1.00
871;DHT22;422;51.280;7.236;2023-06-26T03:12:40;19.40;1.00
871;DHT22;422;51.280;7.236;2023-06-26T03:15:08;19.30;1.00
871;DHT22;422;51.280;7.236;2023-06-26T03:17:37;19.40;1.00
871;DHT22;422;51.280;7.236;2023-06-26T03:20:05;19.30;1.00
871;DHT22;422;51.280;7.236;2023-06-26T03:22:33;19.30;1.00
871;DHT22;422;51.280;7.236;2023-06-26T03:25:01;19.30;1.00
871;DHT22;422;51.280;7.236;2023-06-26T03:27:29;19.30;1.00
871;DHT22;422;51.280;7.236;2023-06-26T03:29:56;19.20;1.00
871;DHT22;422;51.280;7.236;2023-06-26T03:32:23;19.30;1.00
871;DHT22;422;51.280;7.236;2023-06-26T03:34:50;19.20;1.00
871;DHT22;422;51.280;7.236;2023-06-26T03:37:18;19.20;1.00
871;DHT22;422;51.280;7.236;2023-06-26T03:39:46;19.20;1.00
871;DHT22;422;51.280;7.236;2023-06-26T03:42:14;19.20;1.00
871;DHT22;422;51.280;7.236;2023-06-26T03:44:42;19.20;1.00
871;DHT22;422;51.280;7.236;2023-06-26T03:47:09;19.10;1.00
871;DHT22;422;51.280;7.236;2023-06-26T03:49:36;19.00;1.00
871;DHT22;422;51.280;7.236;2023-06-26T03:52:04;19.00;1.00
871;DHT22;422;51.280;7.236;2023-06-26T03:54:31;19.00;1.00
871;DHT22;422;51.280;7.236;2023-06-26T03:56:59;19.00;1.00
871;DHT22;422;51.280;7.236;2023-06-26T03:59:28;19.00;1.00
871;DHT22;422;51.280;7.236;2023-06-26T04:01:55;19.00;1.00
871;DHT22;422;51.280;7.236;2023-06-26T04:04:22;19.00;1.00
871;DHT22;422;51.280;7.236;2023-06-26T04:06:50;19.00;1.00
871;DHT22;422;51.280;7.236;2023-06-26T04:09:17;19.10;1.00
871;DHT22;422;51.280;7.236;2023-06-26T04:11:45;19.10;1.00
871;DHT22;422;51.280;7.236;2023-06-26T04:14:12;19.20;1.00
871;DHT22;422;51.280;7.236;2023-06-26T04:16:41;19.20;1.00
871;DHT22;422;51.280;7.236;2023-06-26T04:19:08;19.40;1.00
871;DHT22;422;51.280;7.236;2023-06-26T04:21:36;19.70;1.00
871;DHT22;422;51.280;7.236;2023-06-26T04:24:03;19.80;1.00
871;DHT22;422;51.280;7.236;2023-06-26T04:26:31;20.00;1.00
871;DHT22;422;51.280;7.236;2023-06-26T04:28:59;20.40;1.00
871;DHT22;422;51.280;7.236;2023-06-26T04:31:26;20.50;1.00
871;DHT22;422;51.280;7.236;2023-06-26T04:33:55;20.70;99.90
871;DHT22;422;51.280;7.236;2023-06-26T04:36:23;20.80;99.90
871;DHT22;422;51.280;7.236;2023-06-26T04:38:54;20.90;1.00
871;DHT22;422;51.280;7.236;2023-06-26T04:41:22;21.00;1.00
871;DHT22;422;51.280;7.236;2023-06-26T04:43:49;21.00;1.00
871;DHT22;422;51.280;7.236;2023-06-26T04:46:16;21.00;1.00
871;DHT22;422;51.280;7.236;2023-06-26T04:48:43;21.10;1.00
871;DHT22;422;51.280;7.236;2023-06-26T04:51:12;21.10;1.00
871;DHT22;422;51.280;7.236;2023-06-26T04:53:39;21.10;1.00
871;DHT22;422;51.280;7.236;2023-06-26T04:56:06;21.10;1.00
871;DHT22;422;51.280;7.236;2023-06-26T04:58:34;21.10;1.00
871;DHT22;422;51.280;7.236;2023-06-26T05:01:02;21.10;1.00
871;DHT22;422;51.280;7.236;2023-06-26T05:03:32;21.10;1.00
871;DHT22;422;51.280;7.236;2023-06-26T05:06:02;21.00;1.00
871;DHT22;422;51.280;7.236;2023-06-26T05:08:31;21.10;1.00
871;DHT22;422;51.280;7.236;2023-06-26T05:10:58;21.10;1.00
871;DHT22;422;51.280;7.236;2023-06-26T05:13:26;21.20;1.00
871;DHT22;422;51.280;7.236;2023-06-26T05:15:53;21.20;1.00
871;DHT22;422;51.280;7.236;2023-06-26T05:18:21;21.20;1.00
871;DHT22;422;51.280;7.236;2023-06-26T05:20:48;21.10;1.00
871;DHT22;422;51.280;7.236;2023-06-26T05:23:16;21.20;1.00
871;DHT22;422;51.280;7.236;2023-06-26T05:25:45;21.20;1.00
871;DHT22;422;51.280;7.236;2023-06-26T05:28:13;21.20;1.00
871;DHT22;422;51.280;7.236;2023-06-26T05:30:41;21.20;1.00
871;DHT22;422;51.280;7.236;2023-06-26T05:33:11;21.10;1.00
871;DHT22;422;51.280;7.236;2023-06-26T05:35:39;21.20;1.00
871;DHT22;422;51.280;7.236;2023-06-26T05:38:07;21.20;1.00
871;DHT22;422;51.280;7.236;2023-06-26T05:40:34;21.20;1.00
871;DHT22;422;51.280;7.236;2023-06-26T05:43:04;21.30;1.00
871;DHT22;422;51.280;7.236;2023-06-26T05:45:31;21.60;1.00
871;DHT22;422;51.280;7.236;2023-06-26T05:47:58;21.80;1.00
871;DHT22;422;51.280;7.236;2023-06-26T05:50:27;21.90;1.00
871;DHT22;422;51.280;7.236;2023-06-26T05:52:55;22.20;1.00
871;DHT22;422;51.280;7.236;2023-06-26T05:55:23;22.30;1.00
871;DHT22;422;51.280;7.236;2023-06-26T05:57:51;22.20;1.00
871;DHT22;422;51.280;7.236;2023-06-26T06:00:21;22.00;1.00
871;DHT22;422;51.280;7.236;2023-06-26T06:02:55;21.90;1.00
871;DHT22;422;51.280;7.236;2023-06-26T06:05:22;21.90;1.00
871;DHT22;422;51.280;7.236;2023-06-26T06:07:49;21.80;1.00
871;DHT22;422;51.280;7.236;2023-06-26T06:10:17;21.70;1.00
871;DHT22;422;51.280;7.236;2023-06-26T06:12:44;21.80;1.00
871;DHT22;422;51.280;7.236;2023-06-26T06:15:12;21.80;1.00
871;DHT22;422;51.280;7.236;2023-06-26T06:17:40;22.10;1.00
871;DHT22;422;51.280;7.236;2023-06-26T06:20:08;22.20;1.00
871;DHT22;422;51.280;7.236;2023-06-26T06:22:36;22.20;1.00
871;DHT22;422;51.280;7.236;2023-06-26T06:25:03;21.90;1.00
871;DHT22;422;51.280;7.236;2023-06-26T06:27:30;21.70;1.00
871;DHT22;422;51.280;7.236;2023-06-26T06:29:58;21.50;1.00
871;DHT22;422;51.280;7.236;2023-06-26T06:32:25;21.30;1.00
871;DHT22;422;51.280;7.236;2023-06-26T06:34:54;21.30;1.00
871;DHT22;422;51.280;7.236;2023-06-26T06:37:21;21.40;1.00
871;DHT22;422;51.280;7.236;2023-06-26T06:39:48;21.80;1.00
871;DHT22;422;51.280;7.236;2023-06-26T06:42:15;22.30;1.00
871;DHT22;422;51.280;7.236;2023-06-26T06:44:42;22.60;1.00
871;DHT22;422;51.280;7.236;2023-06-26T06:47:10;22.80;1.00
871;DHT22;422;51.280;7.236;2023-06-26T06:49:37;23.10;1.00
871;DHT22;422;51.280;7.236;2023-06-26T06:52:06;23.10;1.00
871;DHT22;422;51.280;7.236;2023-06-26T06:54:51;22.80;1.00
871;DHT22;422;51.280;7.236;2023-06-26T06:57:18;23.20;1.00
871;DHT22;422;51.280;7.236;2023-06-26T06:59:46;23.40;1.00
871;DHT22;422;51.280;7.236;2023-06-26T07:02:14;23.60;1.00
871;DHT22;422;51.280;7.236;2023-06-26T07:04:41;24.10;1.00
871;DHT22;422;51.280;7.236;2023-06-26T07:07:11;24.00;1.00
871;DHT22;422;51.280;7.236;2023-06-26T07:09:40;23.80;1.00
871;DHT22;422;51.280;7.236;2023-06-26T07:12:08;23.20;1.00
871;DHT22;422;51.280;7.236;2023-06-26T07:14:35;22.90;1.00
871;DHT22;422;51.280;7.236;2023-06-26T07:17:03;22.70;1.00
871;DHT22;422;51.280;7.236;2023-06-26T07:19:30;23.10;1.00
871;DHT22;422;51.280;7.236;2023-06-26T07:21:57;23.10;1.00
871;DHT22;422;51.280;7.236;2023-06-26T07:24:26;23.20;1.00
871;DHT22;422;51.280;7.236;2023-06-26T07:26:53;23.40;1.00
871;DHT22;422;51.280;7.236;2023-06-26T07:29:21;23.10;1.00
871;DHT22;422;51.280;7.236;2023-06-26T07:31:48;23.40;1.00
871;DHT22;422;51.280;7.236;2023-06-26T07:34:16;23.60;1.00
871;DHT22;422;51.280;7.236;2023-06-26T07:36:43;23.40;1.00
871;DHT22;422;51.280;7.236;2023-06-26T07:39:10;23.60;1.00
871;DHT22;422;51.280;7.236;2023-06-26T07:41:39;23.60;1.00
871;DHT22;422;51.280;7.236;2023-06-26T07:44:07;23.70;1.00
871;DHT22;422;51.280;7.236;2023-06-26T07:46:34;24.00;1.00
871;DHT22;422;51.280;7.236;2023-06-26T07:49:01;23.80;1.00
871;DHT22;422;51.280;7.236;2023-06-26T07:51:29;23.90;1.00
871;DHT22;422;51.280;7.236;2023-06-26T07:53:56;24.30;1.00
871;DHT22;422;51.280;7.236;2023-06-26T07:56:23;24.50;1.00
871;DHT22;422;51.280;7.236;2023-06-26T07:58:52;24.60;1.00
871;DHT22;422;51.280;7.236;2023-06-26T08:01:20;24.70;1.00
871;DHT22;422;51.280;7.236;2023-06-26T08:03:47;24.90;1.00
871;DHT22;422;51.280;7.236;2023-06-26T08:06:15;25.30;1.00
871;DHT22;422;51.280;7.236;2023-06-26T08:08:42;24.90;1.00
871;DHT22;422;51.280;7.236;2023-06-26T08:11:10;24.80;1.00
871;DHT22;422;51.280;7.236;2023-06-26T08:13:37;24.80;1.00
871;DHT22;422;51.280;7.236;2023-06-26T08:16:06;24.30;1.00
871;DHT22;422;51.280;7.236;2023-06-26T08:18:34;24.00;1.00
871;DHT22;422;51.280;7.236;2023-06-26T08:21:01;23.80;99.90
871;DHT22;422;51.280;7.236;2023-06-26T08:23:29;23.70;1.00
871;DHT22;422;51.280;7.236;2023-06-26T08:25:57;23.80;1.00
871;DHT22;422;51.280;7.236;2023-06-26T08:28:25;23.70;1.00
871;DHT22;422;51.280;7.236;2023-06-26T08:30:52;24.00;1.00
871;DHT22;422;51.280;7.236;2023-06-26T08:33:21;24.50;1.00
871;DHT22;422;51.280;7.236;2023-06-26T08:35:50;24.00;99.90
871;DHT22;422;51.280;7.236;2023-06-26T08:38:18;23.50;99.90
871;DHT22;422;51.280;7.236;2023-06-26T08:40:47;23.60;99.90
871;DHT22;422;51.280;7.236;2023-06-26T08:43:14;23.80;99.90
871;DHT22;422;51.280;7.236;2023-06-26T08:45:42;24.00;99.90
871;DHT22;422;51.280;7.236;2023-06-26T08:48:10;24.60;99.90
871;DHT22;422;51.280;7.236;2023-06-26T08:50:40;24.70;99.90
871;DHT22;422;51.280;7.236;2023-06-26T08:53:17;24.90;99.90
871;DHT22;422;51.280;7.236;2023-06-26T08:55:46;24.90;99.90
871;DHT22;422;51.280;7.236;2023-06-26T08:58:16;25.00;99.90
871;DHT22;422;51.280;7.236;2023-06-26T09:00:43;24.50;99.90
871;DHT22;422;51.280;7.236;2023-06-26T09:03:13;24.30;99.90
871;DHT22;422;51.280;7.236;2023-06-26T09:05:42;24.50;99.90
871;DHT22;422;51.280;7.236;2023-06-26T09:08:09;25.00;99.90
871;DHT22;422;51.280;7.236;2023-06-26T09:10:37;24.80;99.90
871;DHT22;422;51.280;7.236;2023-06-26T09:13:05;24.00;99.90
871;DHT22;422;51.280;7.236;2023-06-26T09:15:37;23.90;99.90
871;DHT22;422;51.280;7.236;2023-06-26T09:18:05;23.80;99.90
871;DHT22;422;51.280;7.236;2023-06-26T09:20:33;24.30;99.90
871;DHT22;422;51.280;7.236;2023-06-26T09:23:03;24.90;99.90
871;DHT22;422;51.280;7.236;2023-06-26T09:25:31;25.40;1.00
871;DHT22;422;51.280;7.236;2023-06-26T09:27:59;25.10;99.90
871;DHT22;422;51.280;7.236;2023-06-26T09:30:26;24.60;99.90
871;DHT22;422;51.280;7.236;2023-06-26T09:32:54;24.10;99.90
871;DHT22;422;51.280;7.236;2023-06-26T09:35:21;24.40;99.90
871;DHT22;422;51.280;7.236;2023-06-26T09:37:49;24.20;99.90
871;DHT22;422;51.280;7.236;2023-06-26T09:40:18;24.40;99.90
871;DHT22;422;51.280;7.236;2023-06-26T09:42:46;24.50;99.90
871;DHT22;422;51.280;7.236;2023-06-26T09:45:20;24.70;99.90
871;DHT22;422;51.280;7.236;2023-06-26T09:47:47;24.90;99.90
871;DHT22;422;51.280;7.236;2023-06-26T09:50:24;25.20;99.90
871;DHT22;422;51.280;7.236;2023-06-26T09:52:53;25.50;99.90
871;DHT22;422;51.280;7.236;2023-06-26T09:55:22;26.20;1.00
871;DHT22;422;51.280;7.236;2023-06-26T09:57:50;26.60;1.00
871;DHT22;422;51.280;7.236;2023-06-26T10:00:18;26.40;1.00
871;DHT22;422;51.280;7.236;2023-06-26T10:02:46;26.80;1.00
871;DHT22;422;51.280;7.236;2023-06-26T10:05:13;26.90;1.00
871;DHT22;422;51.280;7.236;2023-06-26T10:07:41;26.30;1.00
871;DHT22;422;51.280;7.236;2023-06-26T10:10:09;26.20;1.00
871;DHT22;422;51.280;7.236;2023-06-26T10:12:39;26.40;1.00
871;DHT22;422;51.280;7.236;2023-06-26T10:15:06;26.40;1.00
871;DHT22;422;51.280;7.236;2023-06-26T10:17:39;26.60;32.40
871;DHT22;422;51.280;7.236;2023-06-26T10:20:09;27.10;99.90
871;DHT22;422;51.280;7.236;2023-06-26T10:22:41;26.90;39.90
871;DHT22;422;51.280;7.236;2023-06-26T10:25:10;26.90;99.90
871;DHT22;422;51.280;7.236;2023-06-26T10:27:44;27.00;99.90
871;DHT22;422;51.280;7.236;2023-06-26T10:30:14;26.00;47.10
871;DHT22;422;51.280;7.236;2023-06-26T10:32:43;25.90;99.90
871;DHT22;422;51.280;7.236;2023-06-26T10:35:13;26.20;86.40
871;DHT22;422;51.280;7.236;2023-06-26T10:37:42;27.10;1.00
871;DHT22;422;51.280;7.236;2023-06-26T10:40:10;27.20;1.00
871;DHT22;422;51.280;7.236;2023-06-26T10:42:40;27.90;1.00
871;DHT22;422;51.280;7.236;2023-06-26T10:45:13;27.80;1.00
871;DHT22;422;51.280;7.236;2023-06-26T10:47:45;27.70;99.90
871;DHT22;422;51.280;7.236;2023-06-26T10:50:18;27.80;43.40
871;DHT22;422;51.280;7.236;2023-06-26T10:52:46;28.20;99.90
871;DHT22;422;51.280;7.236;2023-06-26T10:55:33;28.20;27.50
871;DHT22;422;51.280;7.236;2023-06-26T10:58:02;28.30;1.00
871;DHT22;422;51.280;7.236;2023-06-26T11:00:30;28.60;1.00
871;DHT22;422;51.280;7.236;2023-06-26T11:02:58;28.60;99.90
871;DHT22;422;51.280;7.236;2023-06-26T11:05:27;28.50;91.80
871;DHT22;422;51.280;7.236;2023-06-26T11:08:06;28.00;1.00
871;DHT22;422;51.280;7.236;2023-06-26T11:10:50;27.90;1.00
871;DHT22;422;51.280;7.236;2023-06-26T11:13:20;27.80;99.90
871;DHT22;422;51.280;7.236;2023-06-26T11:15:49;28.10;99.90
871;DHT22;422;51.280;7.236;2023-06-26T11:18:17;28.30;99.90
871;DHT22;422;51.280;7.236;2023-06-26T11:20:44;28.10;99.90
871;DHT22;422;51.280;7.236;2023-06-26T11:23:12;29.00;99.90
871;DHT22;422;51.280;7.236;2023-06-26T11:25:40;27.60;99.90
871;DHT22;422;51.280;7.236;2023-06-26T11:28:10;27.50;99.90
871;DHT22;422;51.280;7.236;2023-06-26T11:30:39;28.30;99.90
871;DHT22;422;51.280;7.236;2023-06-26T11:33:08;28.20;99.90
871;DHT22;422;51.280;7.236;2023-06-26T11:35:36;28.20;99.90
871;DHT22;422;51.280;7.236;2023-06-26T11:38:04;27.90;99.90
871;DHT22;422;51.280;7.236;2023-06-26T11:40:34;28.20;1.00
871;DHT22;422;51.280;7.236;2023-06-26T11:43:02;27.30;1.00
871;DHT22;422;51.280;7.236;2023-06-26T11:45:30;27.70;1.00
871;DHT22;422;51.280;7.236;2023-06-26T11:48:00;26.90;1.00
871;DHT22;422;51.280;7.236;2023-06-26T11:50:28;26.90;1.00
871;DHT22;422;51.280;7.236;2023-06-26T11:52:56;26.90;99.90
871;DHT22;422;51.280;7.236;2023-06-26T11:55:24;27.20;99.90
871;DHT22;422;51.280;7.236;2023-06-26T11:57:53;27.60;1.00
871;DHT22;422;51.280;7.236;2023-06-26T12:00:21;28.10;1.00
871;DHT22;422;51.280;7.236;2023-06-26T12:02:51;27.60;99.90
871;DHT22;422;51.280;7.236;2023-06-26T12:05:20;26.40;1.00
871;DHT22;422;51.280;7.236;2023-06-26T12:07:49;26.60;1.00
871;DHT22;422;51.280;7.236;2023-06-26T12:10:17;26.60;1.00
871;DHT22;422;51.280;7.236;2023-06-26T12:12:46;26.80;99.90
871;DHT22;422;51.280;7.236;2023-06-26T12:15:15;26.50;99.90
871;DHT22;422;51.280;7.236;2023-06-26T12:17:43;27.40;99.90
871;DHT22;422;51.280;7.236;2023-06-26T12:20:21;27.70;1.00
871;DHT22;422;51.280;7.236;2023-06-26T12:22:49;26.50;1.00
871;DHT22;422;51.280;7.236;2023-06-26T12:25:22;25.90;1.00
871;DHT22;422;51.280;7.236;2023-06-26T12:27:50;25.80;1.00
871;DHT22;422;51.280;7.236;2023-06-26T12:30:18;26.30;1.00
871;DHT22;422;51.280;7.236;2023-06-26T12:32:45;27.10;1.00
871;DHT22;422;51.280;7.236;2023-06-26T12:35:13;27.00;1.00
871;DHT22;422;51.280;7.236;2023-06-26T12:37:43;27.40;1.00
871;DHT22;422;51.280;7.236;2023-06-26T12:40:18;27.40;99.90
871;DHT22;422;51.280;7.236;2023-06-26T12:42:47;26.50;99.90
871;DHT22;422;51.280;7.236;2023-06-26T12:45:15;26.30;99.90
871;DHT22;422;51.280;7.236;2023-06-26T12:47:43;26.10;99.90
871;DHT22;422;51.280;7.236;2023-06-26T12:50:12;26.30;99.90
871;DHT22;422;51.280;7.236;2023-06-26T12:52:39;26.50;99.90
871;DHT22;422;51.280;7.236;2023-06-26T12:55:09;26.30;99.90
871;DHT22;422;51.280;7.236;2023-06-26T12:57:36;26.30;99.90
871;DHT22;422;51.280;7.236;2023-06-26T13:00:05;26.50;99.90
871;DHT22;422;51.280;7.236;2023-06-26T13:02:33;26.60;99.90
871;DHT22;422;51.280;7.236;2023-06-26T13:05:00;26.20;99.90
871;DHT22;422;51.280;7.236;2023-06-26T13:07:29;25.50;99.90
871;DHT22;422;51.280;7.236;2023-06-26T13:09:57;26.40;99.90
871;DHT22;422;51.280;7.236;2023-06-26T13:12:26;26.30;99.90
871;DHT22;422;51.280;7.236;2023-06-26T13:14:53;26.80;99.90
871;DHT22;422;51.280;7.236;2023-06-26T13:17:21;26.50;99.90
871;DHT22;422;51.280;7.236;2023-06-26T13:19:48;25.80;99.90
871;DHT22;422;51.280;7.236;2023-06-26T13:22:15;25.10;99.90
871;DHT22;422;51.280;7.236;2023-06-26T13:24:43;24.90;99.90
871;DHT22;422;51.280;7.236;2023-06-26T13:27:10;24.80;99.90
871;DHT22;422;51.280;7.236;2023-06-26T13:29:39;25.20;99.90
871;DHT22;422;51.280;7.236;2023-06-26T13:32:08;25.90;1.00
871;DHT22;422;51.280;7.236;2023-06-26T13:34:36;25.80;1.00
871;DHT22;422;51.280;7.236;2023-06-26T13:37:03;25.90;99.90
871;DHT22;422;51.280;7.236;2023-06-26T13:39:32;25.70;99.90
871;DHT22;422;51.280;7.236;2023-06-26T13:41:59;25.70;99.90
871;DHT22;422;51.280;7.236;2023-06-26T13:44:27;26.30;99.90
871;DHT22;422;51.280;7.236;2023-06-26T13:46:56;26.70;99.90
871;DHT22;422;51.280;7.236;2023-06-26T13:49:23;26.80;1.00
871;DHT22;422;51.280;7.236;2023-06-26T13:51:51;25.40;1.00
871;DHT22;422;51.280;7.236;2023-06-26T13:54:18;25.40;1.00
871;DHT22;422;51.280;7.236;2023-06-26T13:56:46;25.50;1.00
871;DHT22;422;51.280;7.236;2023-06-26T13:59:13;25.10;1.00
871;DHT22;422;51.280;7.236;2023-06-26T14:01:40;25.20;1.00
871;DHT22;422;51.280;7.236;2023-06-26T14:04:11;26.10;1.00
871;DHT22;422;51.280;7.236;2023-06-26T14:06:38;26.50;1.00
871;DHT22;422;51.280;7.236;2023-06-26T14:09:05;26.50;1.00
871;DHT22;422;51.280;7.236;2023-06-26T14:11:34;27.00;1.00
871;DHT22;422;51.280;7.236;2023-06-26T14:14:02;27.20;1.00
871;DHT22;422;51.280;7.236;2023-06-26T14:16:29;26.80;1.00
871;DHT22;422;51.280;7.236;2023-06-26T14:18:57;26.70;1.00
871;DHT22;422;51.280;7.236;2023-06-26T14:21:26;26.20;1.00
871;DHT22;422;51.280;7.236;2023-06-26T14:23:54;26.40;1.00
871;DHT22;422;51.280;7.236;2023-06-26T14:26:21;26.80;1.00
871;DHT22;422;51.280;7.236;2023-06-26T14:28:49;26.20;1.00
871;DHT22;422;51.280;7.236;2023-06-26T14:31:17;26.30;1.00
871;DHT22;422;51.280;7.236;2023-06-26T14:33:44;26.30;1.00
871;DHT22;422;51.280;7.236;2023-06-26T14:36:11;26.40;1.00
871;DHT22;422;51.280;7.236;2023-06-26T14:38:40;26.10;1.00
871;DHT22;422;51.280;7.236;2023-06-26T14:41:08;26.40;1.00
871;DHT22;422;51.280;7.236;2023-06-26T14:43:35;26.30;1.00
871;DHT22;422;51.280;7.236;2023-06-26T14:46:02;26.30;1.00
871;DHT22;422;51.280;7.236;2023-06-26T14:48:30;26.40;1.00
871;DHT22;422;51.280;7.236;2023-06-26T14:50:57;26.50;1.00
871;DHT22;422;51.280;7.236;2023-06-26T14:53:26;26.40;1.00
871;DHT22;422;51.280;7.236;2023-06-26T14:55:55;26.10;1.00
871;DHT22;422;51.280;7.236;2023-06-26T14:58:22;25.90;1.00
871;DHT22;422;51.280;7.236;2023-06-26T15:00:50;25.40;1.00
871;DHT22;422;51.280;7.236;2023-06-26T15:03:17;25.70;1.00
871;DHT22;422;51.280;7.236;2023-06-26T15:05:44;25.70;1.00
871;DHT22;422;51.280;7.236;2023-06-26T15:08:12;25.40;1.00
871;DHT22;422;51.280;7.236;2023-06-26T15:10:39;25.50;1.00
871;DHT22;422;51.280;7.236;2023-06-26T15:13:08;24.90;1.00
871;DHT22;422;51.280;7.236;2023-06-26T15:15:36;25.20;1.00
871;DHT22;422;51.280;7.236;2023-06-26T15:18:03;25.30;1.00
871;DHT22;422;51.280;7.236;2023-06-26T15:20:32;25.20;1.00
871;DHT22;422;51.280;7.236;2023-06-26T15:22:59;24.60;1.00
871;DHT22;422;51.280;7.236;2023-06-26T15:25:27;24.50;1.00
871;DHT22;422;51.280;7.236;2023-06-26T15:27:55;24.30;1.00
871;DHT22;422;51.280;7.236;2023-06-26T15:30:23;24.60;1.00
871;DHT22;422;51.280;7.236;2023-06-26T15:32:51;24.30;1.00
871;DHT22;422;51.280;7.236;2023-06-26T15:35:18;23.90;1.00
871;DHT22;422;51.280;7.236;2023-06-26T15:37:46;23.60;1.00
871;DHT22;422;51.280;7.236;2023-06-26T15:40:15;23.30;1.00
871;DHT22;422;51.280;7.236;2023-06-26T15:42:46;23.20;1.00
871;DHT22;422;51.280;7.236;2023-06-26T15:45:14;23.20;1.00
871;DHT22;422;51.280;7.236;2023-06-26T15:47:45;23.10;1.00
871;DHT22;422;51.280;7.236;2023-06-26T15:50:13;23.40;1.00
871;DHT22;422;51.280;7.236;2023-06-26T15:52:41;23.10;1.00
871;DHT22;422;51.280;7.236;2023-06-26T15:55:08;23.20;1.00
871;DHT22;422;51.280;7.236;2023-06-26T15:57:36;23.20;1.00
871;DHT22;422;51.280;7.236;2023-06-26T16:00:04;23.30;1.00
871;DHT22;422;51.280;7.236;2023-06-26T16:02:33;23.60;1.00
871;DHT22;422;51.280;7.236;2023-06-26T16:05:03;23.70;1.00
871;DHT22;422;51.280;7.236;2023-06-26T16:07:30;23.80;1.00
871;DHT22;422;51.280;7.236;2023-06-26T16:09:58;24.20;1.00
871;DHT22;422;51.280;7.236;2023-06-26T16:12:25;24.00;1.00
871;DHT22;422;51.280;7.236;2023-06-26T16:14:53;23.60;1.00
871;DHT22;422;51.280;7.236;2023-06-26T16:17:20;23.20;1.00
871;DHT22;422;51.280;7.236;2023-06-26T16:19:48;23.10;1.00
871;DHT22;422;51.280;7.236;2023-06-26T16:22:17;23.10;1.00
871;DHT22;422;51.280;7.236;2023-06-26T16:24:44;23.40;1.00
871;DHT22;422;51.280;7.236;2023-06-26T16:27:12;23.40;1.00
871;DHT22;422;51.280;7.236;2023-06-26T16:29:39;23.50;1.00
871;DHT22;422;51.280;7.236;2023-06-26T16:32:08;23.50;1.00
871;DHT22;422;51.280;7.236;2023-06-26T16:34:35;23.60;1.00
871;DHT22;422;51.280;7.236;2023-06-26T16:37:03;23.40;1.00
871;DHT22;422;51.280;7.236;2023-06-26T16:39:35;23.20;1.00
871;DHT22;422;51.280;7.236;2023-06-26T16:42:02;23.40;1.00
871;DHT22;422;51.280;7.236;2023-06-26T16:44:30;23.30;1.00
871;DHT22;422;51.280;7.236;2023-06-26T16:46:58;23.00;1.00
871;DHT22;422;51.280;7.236;2023-06-26T16:49:28;23.00;1.00
871;DHT22;422;51.280;7.236;2023-06-26T16:51:56;23.00;1.00
871;DHT22;422;51.280;7.236;2023-06-26T16:54:23;22.60;1.00